sensor_id;sensor_type;location;lat;lon;timestamp;temperature;humidity
3713;DHT22;1872;51.406;6.856;2022-08-04T00:01:40;23.60;95.60
3713;DHT22;1872;51.406;6.856;2022-08-04T00:09:58;23.70;95.30
3713;DHT22;1872;51.406;6.856;2022-08-04T00:12:27;23.80;95.20
3713;DHT22;1872;51.406;6.856;2022-08-04T00:14:59;23.80;95.10
3713;DHT22;1872;51.406;6.856;2022-08-04T00:17:30;23.80;95.00
3713;DHT22;1872;51.406;6.856;2022-08-04T00:20:00;23.90;95.00
3713;DHT22;1872;51.406;6.856;2022-08-04T00:22:28;23.90;94.80
3713;DHT22;1872;51.406;6.856;2022-08-04T00:24:55;23.90;94.70
3713;DHT22;1872;51.406;6.856;2022-08-04T00:27:21;24.00;94.70
3713;DHT22;1872;51.406;6.856;2022-08-04T00:29:48;24.00;94.70
3713;DHT22;1872;51.406;6.856;2022-08-04T00:32:17;24.00;94.60
3713;DHT22;1872;51.406;6.856;2022-08-04T00:34:43;24.00;94.70
3713;DHT22;1872;51.406;6.856;2022-08-04T00:37:09;24.00;94.70
3713;DHT22;1872;51.406;6.856;2022-08-04T00:39:35;23.90;94.60
3713;DHT22;1872;51.406;6.856;2022-08-04T00:47:40;23.90;94.60
3713;DHT22;1872;51.406;6.856;2022-08-04T00:50:16;23.90;94.50
3713;DHT22;1872;51.406;6.856;2022-08-04T00:55:35;23.90;94.40
3713;DHT22;1872;51.406;6.856;2022-08-04T00:58:22;23.90;94.40
3713;DHT22;1872;51.406;6.856;2022-08-04T01:01:08;23.90;94.60
3713;DHT22;1872;51.406;6.856;2022-08-04T01:04:15;23.80;94.50
3713;DHT22;1872;51.406;6.856;2022-08-04T01:07:08;23.80;94.40
3713;DHT22;1872;51.406;6.856;2022-08-04T01:15:05;23.90;94.40
3713;DHT22;1872;51.406;6.856;2022-08-04T01:20:12;24.00;94.20
3713;DHT22;1872;51.406;6.856;2022-08-04T01:25:52;24.00;94.00
3713;DHT22;1872;51.406;6.856;2022-08-04T01:31:19;24.00;93.90
3713;DHT22;1872;51.406;6.856;2022-08-04T01:33:47;24.00;93.90
3713;DHT22;1872;51.406;6.856;2022-08-04T01:36:15;24.00;93.90
3713;DHT22;1872;51.406;6.856;2022-08-04T01:38:43;24.00;93.90
3713;DHT22;1872;51.406;6.856;2022-08-04T01:41:12;23.90;93.90
3713;DHT22;1872;51.406;6.856;2022-08-04T01:43:43;23.90;93.90
3713;DHT22;1872;51.406;6.856;2022-08-04T01:46:12;23.90;93.90
3713;DHT22;1872;51.406;6.856;2022-08-04T01:48:38;23.90;93.90
3713;DHT22;1872;51.406;6.856;2022-08-04T01:51:07;23.80;93.90
3713;DHT22;1872;51.406;6.856;2022-08-04T01:53:36;23.80;93.90
3713;DHT22;1872;51.406;6.856;2022-08-04T01:56:03;23.80;93.90
3713;DHT22;1872;51.406;6.856;2022-08-04T01:58:31;23.80;93.80
3713;DHT22;1872;51.406;6.856;2022-08-04T02:01:10;23.90;93.90
3713;DHT22;1872;51.406;6.856;2022-08-04T02:03:41;23.80;93.80
3713;DHT22;1872;51.406;6.856;2022-08-04T02:06:42;23.90;93.90
3713;DHT22;1872;51.406;6.856;2022-08-04T02:09:26;23.90;94.00
3713;DHT22;1872;51.406;6.856;2022-08-04T02:12:04;23.90;93.90
3713;DHT22;1872;51.406;6.856;2022-08-04T02:14:48;23.90;93.90
3713;DHT22;1872;51.406;6.856;2022-08-04T02:17:28;23.90;93.90
3713;DHT22;1872;51.406;6.856;2022-08-04T02:20:03;23.90;93.90
3713;DHT22;1872;51.406;6.856;2022-08-04T02:22:32;23.90;93.90
3713;DHT22;1872;51.406;6.856;2022-08-04T02:25:08;23.90;93.90
3713;DHT22;1872;51.406;6.856;2022-08-04T02:30:10;23.80;93.90
3713;DHT22;1872;51.406;6.856;2022-08-04T02:32:36;23.80;93.90
3713;DHT22;1872;51.406;6.856;2022-08-04T02:37:45;23.70;93.90
3713;DHT22;1872;51.406;6.856;2022-08-04T02:40:11;23.70;94.00
3713;DHT22;1872;51.406;6.856;2022-08-04T02:42:37;23.70;94.00
3713;DHT22;1872;51.406;6.856;2022-08-04T02:45:04;23.70;94.00
3713;DHT22;1872;51.406;6.856;2022-08-04T02:47:33;23.70;94.10
3713;DHT22;1872;51.406;6.856;2022-08-04T02:50:00;23.60;94.10
3713;DHT22;1872;51.406;6.856;2022-08-04T02:52:28;23.60;94.10
3713;DHT22;1872;51.406;6.856;2022-08-04T02:54:55;23.60;94.20
3713;DHT22;1872;51.406;6.856;2022-08-04T02:57:24;23.60;94.30
3713;DHT22;1872;51.406;6.856;2022-08-04T03:00:10;23.50;94.30
3713;DHT22;1872;51.406;6.856;2022-08-04T03:02:55;23.40;94.30
3713;DHT22;1872;51.406;6.856;2022-08-04T03:05:33;23.40;94.40
3713;DHT22;1872;51.406;6.856;2022-08-04T03:30:19;22.70;95.50
3713;DHT22;1872;51.406;6.856;2022-08-04T03:41:39;22.20;96.20
3713;DHT22;1872;51.406;6.856;2022-08-04T03:46:57;22.00;96.40
3713;DHT22;1872;51.406;6.856;2022-08-04T04:04:24;21.60;97.40
3713;DHT22;1872;51.406;6.856;2022-08-04T04:14:47;21.40;97.80
3713;DHT22;1872;51.406;6.856;2022-08-04T04:29:47;21.20;98.80
3713;DHT22;1872;51.406;6.856;2022-08-04T04:38:06;21.10;98.90
3713;DHT22;1872;51.406;6.856;2022-08-04T04:40:47;21.10;99.10
3713;DHT22;1872;51.406;6.856;2022-08-04T04:46:05;21.20;99.40
3713;DHT22;1872;51.406;6.856;2022-08-04T04:48:51;21.10;99.40
3713;DHT22;1872;51.406;6.856;2022-08-04T04:51:22;21.10;99.60
3713;DHT22;1872;51.406;6.856;2022-08-04T04:56:44;21.10;99.90
3713;DHT22;1872;51.406;6.856;2022-08-04T04:59:18;21.10;99.90
3713;DHT22;1872;51.406;6.856;2022-08-04T05:04:56;21.10;99.90
3713;DHT22;1872;51.406;6.856;2022-08-04T05:10:50;21.20;99.90
3713;DHT22;1872;51.406;6.856;2022-08-04T05:18:45;21.30;99.90
3713;DHT22;1872;51.406;6.856;2022-08-04T05:23:48;21.30;99.90
3713;DHT22;1872;51.406;6.856;2022-08-04T05:26:17;21.40;99.90
3713;DHT22;1872;51.406;6.856;2022-08-04T05:28:53;21.40;99.90
3713;DHT22;1872;51.406;6.856;2022-08-04T05:31:34;21.40;99.90
3713;DHT22;1872;51.406;6.856;2022-08-04T05:34:07;21.40;99.90
3713;DHT22;1872;51.406;6.856;2022-08-04T05:36:46;21.50;99.90
3713;DHT22;1872;51.406;6.856;2022-08-04T05:39:19;21.50;99.90
3713;DHT22;1872;51.406;6.856;2022-08-04T05:41:47;21.60;99.90
3713;DHT22;1872;51.406;6.856;2022-08-04T05:44:18;21.60;99.90
3713;DHT22;1872;51.406;6.856;2022-08-04T05:46:50;21.70;99.90
3713;DHT22;1872;51.406;6.856;2022-08-04T05:49:18;21.80;99.90
3713;DHT22;1872;51.406;6.856;2022-08-04T05:51:45;21.80;99.90
3713;DHT22;1872;51.406;6.856;2022-08-04T05:54:12;21.90;99.90
3713;DHT22;1872;51.406;6.856;2022-08-04T05:56:38;22.00;99.90
3713;DHT22;1872;51.406;6.856;2022-08-04T05:59:05;22.10;99.90
3713;DHT22;1872;51.406;6.856;2022-08-04T06:01:32;22.20;99.90
3713;DHT22;1872;51.406;6.856;2022-08-04T06:04:00;22.30;99.90
3713;DHT22;1872;51.406;6.856;2022-08-04T06:06:28;22.30;99.90
3713;DHT22;1872;51.406;6.856;2022-08-04T06:08:54;22.50;99.90
3713;DHT22;1872;51.406;6.856;2022-08-04T06:11:20;23.00;99.90
3713;DHT22;1872;51.406;6.856;2022-08-04T06:13:52;23.30;99.90
3713;DHT22;1872;51.406;6.856;2022-08-04T06:16:22;23.80;99.90
3713;DHT22;1872;51.406;6.856;2022-08-04T06:18:49;24.60;99.90
3713;DHT22;1872;51.406;6.856;2022-08-04T06:21:20;25.10;99.90
3713;DHT22;1872;51.406;6.856;2022-08-04T06:23:52;25.50;99.90
3713;DHT22;1872;51.406;6.856;2022-08-04T06:26:22;25.60;99.90
3713;DHT22;1872;51.406;6.856;2022-08-04T06:28:50;25.80;99.90
3713;DHT22;1872;51.406;6.856;2022-08-04T06:31:19;26.00;99.90
3713;DHT22;1872;51.406;6.856;2022-08-04T06:34:05;26.20;99.90
3713;DHT22;1872;51.406;6.856;2022-08-04T06:36:33;26.70;99.90
3713;DHT22;1872;51.406;6.856;2022-08-04T06:39:07;27.00;99.90
3713;DHT22;1872;51.406;6.856;2022-08-04T06:41:41;27.20;99.50
3713;DHT22;1872;51.406;6.856;2022-08-04T06:44:09;27.30;99.00
3713;DHT22;1872;51.406;6.856;2022-08-04T06:46:39;27.30;98.70
3713;DHT22;1872;51.406;6.856;2022-08-04T06:49:05;27.50;98.30
3713;DHT22;1872;51.406;6.856;2022-08-04T06:51:33;27.70;98.10
3713;DHT22;1872;51.406;6.856;2022-08-04T06:54:01;28.00;98.10
3713;DHT22;1872;51.406;6.856;2022-08-04T06:56:29;28.50;97.90
3713;DHT22;1872;51.406;6.856;2022-08-04T06:58:55;28.90;97.40
3713;DHT22;1872;51.406;6.856;2022-08-04T07:01:24;29.50;96.70
3713;DHT22;1872;51.406;6.856;2022-08-04T07:03:51;30.00;95.60
3713;DHT22;1872;51.406;6.856;2022-08-04T07:06:17;30.10;94.90
3713;DHT22;1872;51.406;6.856;2022-08-04T07:08:43;30.20;94.40
3713;DHT22;1872;51.406;6.856;2022-08-04T07:11:10;30.20;94.00
3713;DHT22;1872;51.406;6.856;2022-08-04T07:13:37;30.40;93.30
3713;DHT22;1872;51.406;6.856;2022-08-04T07:16:04;30.40;92.80
3713;DHT22;1872;51.406;6.856;2022-08-04T07:18:31;30.30;92.40
3713;DHT22;1872;51.406;6.856;2022-08-04T07:20:57;30.20;92.40
3713;DHT22;1872;51.406;6.856;2022-08-04T07:23:24;30.10;92.50
3713;DHT22;1872;51.406;6.856;2022-08-04T07:25:55;30.30;92.70
3713;DHT22;1872;51.406;6.856;2022-08-04T07:28:25;30.60;92.30
3713;DHT22;1872;51.406;6.856;2022-08-04T07:30:52;30.90;92.00
3713;DHT22;1872;51.406;6.856;2022-08-04T07:33:19;31.10;91.90
3713;DHT22;1872;51.406;6.856;2022-08-04T07:35:47;31.20;91.70
3713;DHT22;1872;51.406;6.856;2022-08-04T07:38:13;31.40;91.10
3713;DHT22;1872;51.406;6.856;2022-08-04T07:40:40;31.50;90.60
3713;DHT22;1872;51.406;6.856;2022-08-04T07:43:06;31.70;90.40
3713;DHT22;1872;51.406;6.856;2022-08-04T07:45:35;31.80;89.40
3713;DHT22;1872;51.406;6.856;2022-08-04T07:48:02;31.90;88.90
3713;DHT22;1872;51.406;6.856;2022-08-04T07:50:33;32.00;88.00
3713;DHT22;1872;51.406;6.856;2022-08-04T07:53:00;32.10;86.90
3713;DHT22;1872;51.406;6.856;2022-08-04T07:55:27;31.90;86.50
3713;DHT22;1872;51.406;6.856;2022-08-04T07:57:53;31.70;86.60
3713;DHT22;1872;51.406;6.856;2022-08-04T08:00:19;31.70;86.90
3713;DHT22;1872;51.406;6.856;2022-08-04T08:02:49;31.70;86.70
3713;DHT22;1872;51.406;6.856;2022-08-04T08:05:17;31.90;86.20
3713;DHT22;1872;51.406;6.856;2022-08-04T08:07:50;32.10;86.20
3713;DHT22;1872;51.406;6.856;2022-08-04T08:10:16;32.40;85.40
3713;DHT22;1872;51.406;6.856;2022-08-04T08:12:44;32.70;85.20
3713;DHT22;1872;51.406;6.856;2022-08-04T08:15:11;32.80;84.40
3713;DHT22;1872;51.406;6.856;2022-08-04T08:17:39;32.90;84.50
3713;DHT22;1872;51.406;6.856;2022-08-04T08:20:07;33.00;84.40
3713;DHT22;1872;51.406;6.856;2022-08-04T08:22:36;33.20;83.60
3713;DHT22;1872;51.406;6.856;2022-08-04T08:25:07;33.50;83.10
3713;DHT22;1872;51.406;6.856;2022-08-04T08:27:33;33.70;82.60
3713;DHT22;1872;51.406;6.856;2022-08-04T08:30:01;34.00;81.60
3713;DHT22;1872;51.406;6.856;2022-08-04T08:32:29;34.30;80.20
3713;DHT22;1872;51.406;6.856;2022-08-04T08:34:56;34.50;78.90
3713;DHT22;1872;51.406;6.856;2022-08-04T08:37:32;34.70;78.00
3713;DHT22;1872;51.406;6.856;2022-08-04T08:48:27;34.70;74.90
3713;DHT22;1872;51.406;6.856;2022-08-04T08:51:22;34.50;74.50
3713;DHT22;1872;51.406;6.856;2022-08-04T09:02:41;33.50;75.10
3713;DHT22;1872;51.406;6.856;2022-08-04T09:11:22;33.90;73.60
3713;DHT22;1872;51.406;6.856;2022-08-04T09:14:00;33.80;73.60
3713;DHT22;1872;51.406;6.856;2022-08-04T09:16:46;33.80;73.10
3713;DHT22;1872;51.406;6.856;2022-08-04T09:22:00;33.80;72.20
3713;DHT22;1872;51.406;6.856;2022-08-04T09:27:50;33.20;72.10
3713;DHT22;1872;51.406;6.856;2022-08-04T09:30:33;32.90;72.20
3713;DHT22;1872;51.406;6.856;2022-08-04T09:33:39;32.60;72.60
3713;DHT22;1872;51.406;6.856;2022-08-04T09:44:30;31.50;74.10
3713;DHT22;1872;51.406;6.856;2022-08-04T10:00:10;31.40;75.40
3713;DHT22;1872;51.406;6.856;2022-08-04T10:02:41;31.50;75.50
3713;DHT22;1872;51.406;6.856;2022-08-04T10:05:13;31.50;75.30
3713;DHT22;1872;51.406;6.856;2022-08-04T10:18:47;31.40;75.50
3713;DHT22;1872;51.406;6.856;2022-08-04T10:29:30;31.40;75.40
3713;DHT22;1872;51.406;6.856;2022-08-04T10:34:43;31.40;75.40
3713;DHT22;1872;51.406;6.856;2022-08-04T10:37:22;31.30;75.30
3713;DHT22;1872;51.406;6.856;2022-08-04T10:40:16;31.40;75.30
3713;DHT22;1872;51.406;6.856;2022-08-04T10:53:49;31.30;75.80
3713;DHT22;1872;51.406;6.856;2022-08-04T10:56:26;31.30;75.80
3713;DHT22;1872;51.406;6.856;2022-08-04T10:58:59;31.30;75.90
3713;DHT22;1872;51.406;6.856;2022-08-04T11:01:32;31.20;76.00
3713;DHT22;1872;51.406;6.856;2022-08-04T11:04:04;31.10;76.40
3713;DHT22;1872;51.406;6.856;2022-08-04T11:06:33;31.10;76.60
3713;DHT22;1872;51.406;6.856;2022-08-04T11:09:00;31.10;76.70
3713;DHT22;1872;51.406;6.856;2022-08-04T11:11:40;31.10;76.60
3713;DHT22;1872;51.406;6.856;2022-08-04T11:14:26;31.10;76.50
3713;DHT22;1872;51.406;6.856;2022-08-04T11:17:04;31.20;76.90
3713;DHT22;1872;51.406;6.856;2022-08-04T11:22:27;31.20;76.70
3713;DHT22;1872;51.406;6.856;2022-08-04T11:25:12;31.20;76.80
3713;DHT22;1872;51.406;6.856;2022-08-04T11:27:50;31.20;76.40
3713;DHT22;1872;51.406;6.856;2022-08-04T11:30:19;31.20;76.20
3713;DHT22;1872;51.406;6.856;2022-08-04T11:41:59;31.20;76.30
3713;DHT22;1872;51.406;6.856;2022-08-04T11:45:04;31.10;76.00
3713;DHT22;1872;51.406;6.856;2022-08-04T11:50:37;31.00;76.00
3713;DHT22;1872;51.406;6.856;2022-08-04T11:53:03;31.00;76.10
3713;DHT22;1872;51.406;6.856;2022-08-04T11:55:30;31.00;76.10
3713;DHT22;1872;51.406;6.856;2022-08-04T11:57:57;31.10;76.10
3713;DHT22;1872;51.406;6.856;2022-08-04T12:00:27;31.10;76.10
3713;DHT22;1872;51.406;6.856;2022-08-04T12:03:26;31.10;76.00
3713;DHT22;1872;51.406;6.856;2022-08-04T12:14:54;30.80;76.10
3713;DHT22;1872;51.406;6.856;2022-08-04T12:17:30;30.70;76.00
3713;DHT22;1872;51.406;6.856;2022-08-04T12:20:03;30.60;76.20
3713;DHT22;1872;51.406;6.856;2022-08-04T12:22:42;30.50;76.20
3713;DHT22;1872;51.406;6.856;2022-08-04T12:25:15;30.30;76.20
3713;DHT22;1872;51.406;6.856;2022-08-04T12:30:13;30.10;76.60
3713;DHT22;1872;51.406;6.856;2022-08-04T12:32:54;30.10;77.10
3713;DHT22;1872;51.406;6.856;2022-08-04T12:35:56;30.10;77.50
3713;DHT22;1872;51.406;6.856;2022-08-04T12:38:25;30.10;78.30
3713;DHT22;1872;51.406;6.856;2022-08-04T12:40:57;30.20;77.70
3713;DHT22;1872;51.406;6.856;2022-08-04T12:43:26;30.20;77.90
3713;DHT22;1872;51.406;6.856;2022-08-04T12:46:01;30.20;78.20
3713;DHT22;1872;51.406;6.856;2022-08-04T12:48:28;30.20;78.70
3713;DHT22;1872;51.406;6.856;2022-08-04T12:50:56;30.20;79.00
3713;DHT22;1872;51.406;6.856;2022-08-04T12:53:26;30.30;79.30
3713;DHT22;1872;51.406;6.856;2022-08-04T12:55:54;30.40;79.80
3713;DHT22;1872;51.406;6.856;2022-08-04T12:58:23;30.40;79.80
3713;DHT22;1872;51.406;6.856;2022-08-04T13:00:59;30.50;79.90
3713;DHT22;1872;51.406;6.856;2022-08-04T13:03:33;30.50;80.30
3713;DHT22;1872;51.406;6.856;2022-08-04T13:06:02;30.50;80.30
3713;DHT22;1872;51.406;6.856;2022-08-04T13:08:36;30.50;80.30
3713;DHT22;1872;51.406;6.856;2022-08-04T13:11:03;30.50;80.10
3713;DHT22;1872;51.406;6.856;2022-08-04T13:13:33;30.50;79.80
3713;DHT22;1872;51.406;6.856;2022-08-04T13:16:02;30.50;79.30
3713;DHT22;1872;51.406;6.856;2022-08-04T13:18:32;30.50;78.60
3713;DHT22;1872;51.406;6.856;2022-08-04T13:23:43;30.40;78.90
3713;DHT22;1872;51.406;6.856;2022-08-04T13:26:14;30.50;79.20
3713;DHT22;1872;51.406;6.856;2022-08-04T13:28:42;30.50;79.60
3713;DHT22;1872;51.406;6.856;2022-08-04T13:31:15;30.50;79.40
3713;DHT22;1872;51.406;6.856;2022-08-04T13:33:44;30.40;79.40
3713;DHT22;1872;51.406;6.856;2022-08-04T13:36:11;30.40;79.50
3713;DHT22;1872;51.406;6.856;2022-08-04T13:38:43;30.40;79.80
3713;DHT22;1872;51.406;6.856;2022-08-04T13:41:11;30.40;79.60
3713;DHT22;1872;51.406;6.856;2022-08-04T13:43:46;30.30;79.30
3713;DHT22;1872;51.406;6.856;2022-08-04T13:46:16;30.30;79.20
3713;DHT22;1872;51.406;6.856;2022-08-04T13:48:43;30.30;79.30
3713;DHT22;1872;51.406;6.856;2022-08-04T13:51:10;30.20;79.50
3713;DHT22;1872;51.406;6.856;2022-08-04T13:53:38;30.20;79.60
3713;DHT22;1872;51.406;6.856;2022-08-04T13:56:07;30.20;79.40
3713;DHT22;1872;51.406;6.856;2022-08-04T13:58:40;30.20;79.30
3713;DHT22;1872;51.406;6.856;2022-08-04T14:01:17;30.20;79.10
3713;DHT22;1872;51.406;6.856;2022-08-04T14:06:53;30.20;79.40
3713;DHT22;1872;51.406;6.856;2022-08-04T14:09:22;30.20;79.40
3713;DHT22;1872;51.406;6.856;2022-08-04T14:11:51;30.10;79.10
3713;DHT22;1872;51.406;6.856;2022-08-04T14:14:27;30.10;78.40
3713;DHT22;1872;51.406;6.856;2022-08-04T14:17:13;30.00;78.10
3713;DHT22;1872;51.406;6.856;2022-08-04T14:25:15;30.00;78.50
3713;DHT22;1872;51.406;6.856;2022-08-04T14:27:42;29.90;78.50
3713;DHT22;1872;51.406;6.856;2022-08-04T14:33:01;29.90;78.80
3713;DHT22;1872;51.406;6.856;2022-08-04T14:35:28;29.90;78.90
3713;DHT22;1872;51.406;6.856;2022-08-04T14:38:05;29.80;79.00
3713;DHT22;1872;51.406;6.856;2022-08-04T14:40:34;29.90;79.20
3713;DHT22;1872;51.406;6.856;2022-08-04T14:43:01;29.80;79.20
3713;DHT22;1872;51.406;6.856;2022-08-04T14:47:57;29.70;79.40
3713;DHT22;1872;51.406;6.856;2022-08-04T14:50:43;29.70;79.60
3713;DHT22;1872;51.406;6.856;2022-08-04T14:55:35;29.50;79.70
3713;DHT22;1872;51.406;6.856;2022-08-04T14:58:01;29.40;79.80
3713;DHT22;1872;51.406;6.856;2022-08-04T15:00:33;29.40;80.10
3713;DHT22;1872;51.406;6.856;2022-08-04T15:03:06;29.30;80.10
3713;DHT22;1872;51.406;6.856;2022-08-04T15:05:38;29.20;80.30
3713;DHT22;1872;51.406;6.856;2022-08-04T15:08:04;29.10;80.50
3713;DHT22;1872;51.406;6.856;2022-08-04T15:10:32;29.00;80.60
3713;DHT22;1872;51.406;6.856;2022-08-04T15:12:58;29.00;80.90
3713;DHT22;1872;51.406;6.856;2022-08-04T15:15:24;29.00;81.00
3713;DHT22;1872;51.406;6.856;2022-08-04T15:17:51;29.00;81.20
3713;DHT22;1872;51.406;6.856;2022-08-04T15:20:18;29.00;81.30
3713;DHT22;1872;51.406;6.856;2022-08-04T15:22:44;28.90;81.20
3713;DHT22;1872;51.406;6.856;2022-08-04T15:25:11;28.90;81.30
3713;DHT22;1872;51.406;6.856;2022-08-04T15:27:39;28.90;81.60
3713;DHT22;1872;51.406;6.856;2022-08-04T15:30:10;28.90;81.80
3713;DHT22;1872;51.406;6.856;2022-08-04T15:32:45;28.80;81.90
3713;DHT22;1872;51.406;6.856;2022-08-04T15:35:20;28.80;82.30
3713;DHT22;1872;51.406;6.856;2022-08-04T15:40:29;28.70;82.50
3713;DHT22;1872;51.406;6.856;2022-08-04T15:46:04;28.70;83.00
3713;DHT22;1872;51.406;6.856;2022-08-04T15:48:31;28.70;82.90
3713;DHT22;1872;51.406;6.856;2022-08-04T15:53:27;28.70;82.80
3713;DHT22;1872;51.406;6.856;2022-08-04T15:55:53;28.70;82.60
3713;DHT22;1872;51.406;6.856;2022-08-04T15:58:20;28.70;82.50
3713;DHT22;1872;51.406;6.856;2022-08-04T16:03:45;28.60;82.50
3713;DHT22;1872;51.406;6.856;2022-08-04T16:19:04;28.30;84.00
3713;DHT22;1872;51.406;6.856;2022-08-04T16:21:33;28.30;84.10
3713;DHT22;1872;51.406;6.856;2022-08-04T16:29:47;28.30;84.90
3713;DHT22;1872;51.406;6.856;2022-08-04T16:34:35;28.30;85.50
3713;DHT22;1872;51.406;6.856;2022-08-04T16:37:02;28.30;85.30
3713;DHT22;1872;51.406;6.856;2022-08-04T16:39:29;28.20;85.30
3713;DHT22;1872;51.406;6.856;2022-08-04T16:41:55;28.20;85.40
3713;DHT22;1872;51.406;6.856;2022-08-04T16:46:54;28.10;85.90
3713;DHT22;1872;51.406;6.856;2022-08-04T16:49:22;28.10;86.10
3713;DHT22;1872;51.406;6.856;2022-08-04T16:51:50;28.10;86.30
3713;DHT22;1872;51.406;6.856;2022-08-04T16:54:17;28.00;86.70
3713;DHT22;1872;51.406;6.856;2022-08-04T16:56:43;28.00;86.80
3713;DHT22;1872;51.406;6.856;2022-08-04T16:59:11;28.00;86.70
3713;DHT22;1872;51.406;6.856;2022-08-04T17:01:45;27.90;86.50
3713;DHT22;1872;51.406;6.856;2022-08-04T17:04:12;27.90;86.60
3713;DHT22;1872;51.406;6.856;2022-08-04T17:06:42;27.80;86.50
3713;DHT22;1872;51.406;6.856;2022-08-04T17:09:16;27.80;86.70
3713;DHT22;1872;51.406;6.856;2022-08-04T17:11:45;27.70;86.90
3713;DHT22;1872;51.406;6.856;2022-08-04T17:14:12;27.70;87.00
3713;DHT22;1872;51.406;6.856;2022-08-04T17:16:41;27.60;87.20
3713;DHT22;1872;51.406;6.856;2022-08-04T17:19:08;27.60;87.50
3713;DHT22;1872;51.406;6.856;2022-08-04T17:21:36;27.60;87.70
3713;DHT22;1872;51.406;6.856;2022-08-04T17:24:03;27.60;87.80
3713;DHT22;1872;51.406;6.856;2022-08-04T17:26:35;27.50;87.90
3713;DHT22;1872;51.406;6.856;2022-08-04T17:29:02;27.50;88.40
3713;DHT22;1872;51.406;6.856;2022-08-04T17:31:31;27.40;88.60
3713;DHT22;1872;51.406;6.856;2022-08-04T17:33:59;27.40;88.90
3713;DHT22;1872;51.406;6.856;2022-08-04T17:36:30;27.40;89.10
3713;DHT22;1872;51.406;6.856;2022-08-04T17:39:02;27.40;89.30
3713;DHT22;1872;51.406;6.856;2022-08-04T17:41:34;27.30;89.20
3713;DHT22;1872;51.406;6.856;2022-08-04T17:44:01;27.30;89.40
3713;DHT22;1872;51.406;6.856;2022-08-04T17:49:20;27.30;89.60
3713;DHT22;1872;51.406;6.856;2022-08-04T17:51:54;27.30;90.00
3713;DHT22;1872;51.406;6.856;2022-08-04T17:54:29;27.30;90.00
3713;DHT22;1872;51.406;6.856;2022-08-04T17:56:57;27.30;90.20
3713;DHT22;1872;51.406;6.856;2022-08-04T17:59:25;27.20;90.30
3713;DHT22;1872;51.406;6.856;2022-08-04T18:01:57;27.20;90.50
3713;DHT22;1872;51.406;6.856;2022-08-04T18:06:50;27.20;90.80
3713;DHT22;1872;51.406;6.856;2022-08-04T18:09:50;27.10;90.90
3713;DHT22;1872;51.406;6.856;2022-08-04T18:12:25;27.10;91.10
3713;DHT22;1872;51.406;6.856;2022-08-04T18:15:06;27.00;91.00
3713;DHT22;1872;51.406;6.856;2022-08-04T18:17:39;27.00;91.10
3713;DHT22;1872;51.406;6.856;2022-08-04T18:20:11;27.00;91.10
3713;DHT22;1872;51.406;6.856;2022-08-04T18:22:42;27.00;91.20
3713;DHT22;1872;51.406;6.856;2022-08-04T18:25:09;26.90;91.10
3713;DHT22;1872;51.406;6.856;2022-08-04T18:30:14;26.80;91.20
3713;DHT22;1872;51.406;6.856;2022-08-04T18:32:40;26.70;91.20
3713;DHT22;1872;51.406;6.856;2022-08-04T18:35:06;26.70;91.30
3713;DHT22;1872;51.406;6.856;2022-08-04T18:37:35;26.60;91.40
3713;DHT22;1872;51.406;6.856;2022-08-04T18:40:04;26.60;91.50
3713;DHT22;1872;51.406;6.856;2022-08-04T18:42:30;26.50;91.60
3713;DHT22;1872;51.406;6.856;2022-08-04T18:44:56;26.50;91.70
3713;DHT22;1872;51.406;6.856;2022-08-04T18:47:21;26.40;91.70
3713;DHT22;1872;51.406;6.856;2022-08-04T18:49:51;26.30;91.70
3713;DHT22;1872;51.406;6.856;2022-08-04T18:52:16;26.30;91.70
3713;DHT22;1872;51.406;6.856;2022-08-04T18:54:42;26.20;91.80
3713;DHT22;1872;51.406;6.856;2022-08-04T18:57:08;26.20;91.90
3713;DHT22;1872;51.406;6.856;2022-08-04T18:59:34;26.20;91.90
3713;DHT22;1872;51.406;6.856;2022-08-04T19:02:01;26.10;91.90
3713;DHT22;1872;51.406;6.856;2022-08-04T19:04:26;26.10;92.00
3713;DHT22;1872;51.406;6.856;2022-08-04T19:06:52;26.10;92.00
3713;DHT22;1872;51.406;6.856;2022-08-04T19:09:18;26.10;92.10
3713;DHT22;1872;51.406;6.856;2022-08-04T19:11:44;26.10;92.20
3713;DHT22;1872;51.406;6.856;2022-08-04T19:14:09;26.00;92.30
3713;DHT22;1872;51.406;6.856;2022-08-04T19:16:36;26.00;92.30
3713;DHT22;1872;51.406;6.856;2022-08-04T19:19:03;26.00;92.30
3713;DHT22;1872;51.406;6.856;2022-08-04T19:21:30;26.00;92.40
3713;DHT22;1872;51.406;6.856;2022-08-04T19:23:56;25.90;92.40
3713;DHT22;1872;51.406;6.856;2022-08-04T19:26:27;25.90;92.50
3713;DHT22;1872;51.406;6.856;2022-08-04T19:28:52;25.80;92.60
3713;DHT22;1872;51.406;6.856;2022-08-04T19:31:19;25.80;92.60
3713;DHT22;1872;51.406;6.856;2022-08-04T19:33:45;25.80;92.70
3713;DHT22;1872;51.406;6.856;2022-08-04T19:36:11;25.70;92.80
3713;DHT22;1872;51.406;6.856;2022-08-04T19:38:37;25.70;92.90
3713;DHT22;1872;51.406;6.856;2022-08-04T19:41:04;25.70;93.00
3713;DHT22;1872;51.406;6.856;2022-08-04T19:43:32;25.60;93.00
3713;DHT22;1872;51.406;6.856;2022-08-04T19:45:58;25.60;93.10
3713;DHT22;1872;51.406;6.856;2022-08-04T19:48:26;25.60;93.20
3713;DHT22;1872;51.406;6.856;2022-08-04T19:50:52;25.50;93.20
3713;DHT22;1872;51.406;6.856;2022-08-04T19:53:18;25.50;93.60
3713;DHT22;1872;51.406;6.856;2022-08-04T19:55:44;25.50;93.40
3713;DHT22;1872;51.406;6.856;2022-08-04T19:58:11;25.40;93.40
3713;DHT22;1872;51.406;6.856;2022-08-04T20:00:39;25.40;93.60
3713;DHT22;1872;51.406;6.856;2022-08-04T20:03:08;25.40;93.70
3713;DHT22;1872;51.406;6.856;2022-08-04T20:05:41;25.30;93.80
3713;DHT22;1872;51.406;6.856;2022-08-04T20:08:07;25.20;93.80
3713;DHT22;1872;51.406;6.856;2022-08-04T20:10:33;25.20;93.90
3713;DHT22;1872;51.406;6.856;2022-08-04T20:12:59;25.10;94.10
3713;DHT22;1872;51.406;6.856;2022-08-04T20:15:25;25.10;94.20
3713;DHT22;1872;51.406;6.856;2022-08-04T20:17:51;25.10;94.30
3713;DHT22;1872;51.406;6.856;2022-08-04T20:20:21;25.00;94.30
3713;DHT22;1872;51.406;6.856;2022-08-04T20:22:47;25.00;94.50
3713;DHT22;1872;51.406;6.856;2022-08-04T20:25:14;24.90;94.50
3713;DHT22;1872;51.406;6.856;2022-08-04T20:27:43;24.90;94.80
3713;DHT22;1872;51.406;6.856;2022-08-04T20:30:09;24.80;94.70
3713;DHT22;1872;51.406;6.856;2022-08-04T20:32:35;24.80;94.80
3713;DHT22;1872;51.406;6.856;2022-08-04T20:35:02;24.70;94.90
3713;DHT22;1872;51.406;6.856;2022-08-04T20:37:27;24.70;95.40
3713;DHT22;1872;51.406;6.856;2022-08-04T20:40:00;24.70;95.10
3713;DHT22;1872;51.406;6.856;2022-08-04T20:42:27;24.60;95.30
3713;DHT22;1872;51.406;6.856;2022-08-04T20:44:56;24.60;95.40
3713;DHT22;1872;51.406;6.856;2022-08-04T20:47:22;24.50;95.50
3713;DHT22;1872;51.406;6.856;2022-08-04T20:49:48;24.50;95.50
3713;DHT22;1872;51.406;6.856;2022-08-04T20:52:13;24.50;95.50
3713;DHT22;1872;51.406;6.856;2022-08-04T20:54:45;24.50;95.40
3713;DHT22;1872;51.406;6.856;2022-08-04T20:57:12;24.40;95.30
3713;DHT22;1872;51.406;6.856;2022-08-04T20:59:38;24.40;95.10
3713;DHT22;1872;51.406;6.856;2022-08-04T21:02:04;24.40;94.90
3713;DHT22;1872;51.406;6.856;2022-08-04T21:04:30;24.30;94.80
3713;DHT22;1872;51.406;6.856;2022-08-04T21:07:02;24.30;94.60
3713;DHT22;1872;51.406;6.856;2022-08-04T21:09:29;24.30;94.40
3713;DHT22;1872;51.406;6.856;2022-08-04T21:11:55;24.30;94.30
3713;DHT22;1872;51.406;6.856;2022-08-04T21:14:21;24.20;94.20
3713;DHT22;1872;51.406;6.856;2022-08-04T21:16:46;24.20;94.00
3713;DHT22;1872;51.406;6.856;2022-08-04T21:19:12;24.10;93.90
3713;DHT22;1872;51.406;6.856;2022-08-04T21:21:39;24.00;93.70
3713;DHT22;1872;51.406;6.856;2022-08-04T21:24:06;24.00;93.60